Time;durP1;ratioP1;P1;durP2;ratioP2;P2;SDS_P1;SDS_P2;PMS_P1;PMS_P2;Temp;Humidity;BMP_temperature;BMP_pressure;BME280_temperature;BME280_humidity;BME280_pressure;Samples;Min_cycle;Max_cycle;Signal;HPM_P1;HPM_P2
2021/09/20 00:01:41;;;;;;;6.60;4.35;;;;;;;;;;6168703;23;20259;-89
2021/09/20 00:04:47;;;;;;;10.38;4.32;;;;;;;;;;6169069;23;20168;-89
2021/09/20 00:07:52;;;;;;;7.47;4.88;;;;;;;;;;6168558;23;20606;-91
2021/09/20 00:10:58;;;;;;;6.78;4.70;;;;;;;;;;6169627;23;20200;-89
2021/09/20 00:14:03;;;;;;;6.18;4.32;;;;;;;;;;6169223;23;20268;-89
2021/09/20 00:17:08;;;;;;;5.25;3.30;;;;;;;;;;6169462;23;20165;-91
2021/09/20 00:20:17;;;;;;;5.63;3.35;;;;;;;;;;6167327;23;20344;-90
2021/09/20 00:23:21;;;;;;;4.40;3.20;;;;;;;;;;6184707;23;20595;-91
2021/09/20 00:26:27;;;;;;;6.65;4.00;;;;;;;;;;6168991;23;20168;-91
2021/09/20 00:29:32;;;;;;;8.55;4.85;;;;;;;;;;6166474;23;20236;-89
2021/09/20 00:32:38;;;;;;;7.80;4.00;;;;;;;;;;6167645;23;20172;-91
2021/09/20 00:35:45;;;;;;;7.40;3.97;;;;;;;;;;6168084;23;20228;-89
2021/09/20 00:38:49;;;;;;;6.57;4.38;;;;;;;;;;6167492;23;20171;-91
2021/09/20 00:41:54;;;;;;;7.40;4.50;;;;;;;;;;6167861;23;20176;-90
2021/09/20 00:44:59;;;;;;;6.93;4.47;;;;;;;;;;6168084;23;20243;-90
2021/09/20 00:48:05;;;;;;;7.53;4.80;;;;;;;;;;6168976;23;20236;-91
2021/09/20 00:51:11;;;;;;;7.40;4.53;;;;;;;;;;6168350;23;20200;-91
2021/09/20 00:54:16;;;;;;;7.35;5.05;;;;;;;;;;6169112;23;20176;-90
2021/09/20 00:57:22;;;;;;;13.50;5.65;;;;;;;;;;6168924;23;20172;-89
2021/09/20 01:00:27;;;;;;;7.50;5.13;;;;;;;;;;6166522;23;20173;-91
2021/09/20 01:03:33;;;;;;;8.73;5.25;;;;;;;;;;6169965;23;20193;-91
2021/09/20 01:06:40;;;;;;;8.55;5.55;;;;;;;;;;6166198;23;20169;-91
2021/09/20 01:09:45;;;;;;;7.78;5.05;;;;;;;;;;6169002;23;20193;-92
2021/09/20 01:12:50;;;;;;;9.27;5.70;;;;;;;;;;6168177;23;20229;-90
2021/09/20 01:15:55;;;;;;;7.38;5.50;;;;;;;;;;6169135;23;20296;-91
2021/09/20 01:19:00;;;;;;;8.02;5.28;;;;;;;;;;6166024;23;20172;-90
2021/09/20 01:22:11;;;;;;;7.22;4.97;;;;;;;;;;6165465;23;20180;-91
2021/09/20 01:25:17;;;;;;;9.30;5.35;;;;;;;;;;6182407;22;20180;-91
2021/09/20 01:28:22;;;;;;;11.77;5.35;;;;;;;;;;6166349;23;20161;-92
2021/09/20 01:31:27;;;;;;;7.07;5.35;;;;;;;;;;6166369;23;20191;-90
2021/09/20 01:34:33;;;;;;;7.72;5.35;;;;;;;;;;6165753;23;20506;-90
2021/09/20 01:37:38;;;;;;;8.32;5.85;;;;;;;;;;6165790;23;20176;-90
2021/09/20 01:40:46;;;;;;;7.65;5.30;;;;;;;;;;6166668;23;20715;-91
2021/09/20 01:43:51;;;;;;;8.48;5.68;;;;;;;;;;6166476;23;20284;-89
2021/09/20 01:46:57;;;;;;;9.95;6.07;;;;;;;;;;6166417;23;20265;-90
2021/09/20 01:50:02;;;;;;;8.77;5.53;;;;;;;;;;6166569;23;20192;-90
2021/09/20 01:53:07;;;;;;;7.72;4.85;;;;;;;;;;6174056;23;20228;-90
2021/09/20 01:56:13;;;;;;;7.22;5.20;;;;;;;;;;6166682;23;20251;-90
2021/09/20 01:59:18;;;;;;;7.90;5.60;;;;;;;;;;6165521;23;20199;-91
2021/09/20 02:02:23;;;;;;;7.32;5.30;;;;;;;;;;6167382;23;20207;-91
2021/09/20 02:05:28;;;;;;;9.23;5.18;;;;;;;;;;6167770;23;20168;-90
2021/09/20 02:08:34;;;;;;;10.25;5.38;;;;;;;;;;6168525;23;20160;-90
2021/09/20 02:11:40;;;;;;;8.00;5.18;;;;;;;;;;6168697;23;20643;-90
2021/09/20 02:14:45;;;;;;;8.05;5.53;;;;;;;;;;6169270;23;20168;-90
2021/09/20 02:17:50;;;;;;;8.65;5.32;;;;;;;;;;6168239;23;20251;-90
2021/09/20 02:20:55;;;;;;;9.85;5.07;;;;;;;;;;6167710;23;20259;-89
2021/09/20 02:24:00;;;;;;;8.32;5.20;;;;;;;;;;6169019;23;20168;-90
2021/09/20 02:27:07;;;;;;;7.00;5.03;;;;;;;;;;6167656;23;20172;-89
2021/09/20 02:30:13;;;;;;;7.60;4.78;;;;;;;;;;6167379;23;20180;-90
2021/09/20 02:33:18;;;;;;;7.88;5.38;;;;;;;;;;6168336;23;20255;-90
2021/09/20 02:36:23;;;;;;;9.35;5.78;;;;;;;;;;6166587;23;20240;-91
2021/09/20 02:39:28;;;;;;;9.90;5.65;;;;;;;;;;6165980;23;20169;-90
2021/09/20 02:42:35;;;;;;;9.35;6.28;;;;;;;;;;6167435;23;20453;-90
2021/09/20 02:45:40;;;;;;;9.05;5.43;;;;;;;;;;6167368;23;20224;-89
2021/09/20 02:48:45;;;;;;;11.00;5.43;;;;;;;;;;6167091;23;20608;-89
2021/09/20 02:51:50;;;;;;;9.45;5.88;;;;;;;;;;6166877;23;20224;-90
2021/09/20 02:54:56;;;;;;;8.38;5.18;;;;;;;;;;6167770;23;20484;-90
2021/09/20 02:58:02;;;;;;;12.93;5.72;;;;;;;;;;6166777;23;20268;-89
2021/09/20 03:01:08;;;;;;;9.18;5.22;;;;;;;;;;6165913;23;20240;-90
2021/09/20 03:04:13;;;;;;;10.52;5.78;;;;;;;;;;6167260;23;20161;-90
2021/09/20 03:07:18;;;;;;;8.77;5.65;;;;;;;;;;6165793;23;20167;-90
2021/09/20 03:10:23;;;;;;;7.57;5.40;;;;;;;;;;6168558;23;20257;-90
2021/09/20 03:13:29;;;;;;;11.43;5.85;;;;;;;;;;6169663;23;20212;-90
2021/09/20 03:16:34;;;;;;;7.75;5.30;;;;;;;;;;6168645;23;20485;-90
2021/09/20 03:19:39;;;;;;;9.07;6.00;;;;;;;;;;6167806;23;20296;-90
2021/09/20 03:22:45;;;;;;;9.30;6.25;;;;;;;;;;6167173;23;20526;-90
2021/09/20 03:25:50;;;;;;;11.23;6.68;;;;;;;;;;6168616;23;20210;-90
2021/09/20 03:28:56;;;;;;;10.93;6.93;;;;;;;;;;6167798;23;20268;-89
2021/09/20 03:32:02;;;;;;;10.55;7.28;;;;;;;;;;6167485;23;20196;-90
2021/09/20 03:35:07;;;;;;;11.18;7.28;;;;;;;;;;6167387;23;20208;-88
2021/09/20 03:38:13;;;;;;;10.65;7.00;;;;;;;;;;6167543;23;20220;-91
2021/09/20 03:41:18;;;;;;;12.50;7.35;;;;;;;;;;6169009;23;20229;-90
2021/09/20 03:44:24;;;;;;;9.95;7.07;;;;;;;;;;6169051;23;20205;-90
2021/09/20 03:47:30;;;;;;;10.93;7.20;;;;;;;;;;6168520;23;20156;-91
2021/09/20 03:50:35;;;;;;;11.15;6.95;;;;;;;;;;6168302;23;20253;-88
2021/09/20 03:53:40;;;;;;;9.55;6.43;;;;;;;;;;6169475;23;20216;-91
2021/09/20 03:56:45;;;;;;;13.85;7.10;;;;;;;;;;6169803;23;20156;-90
2021/09/20 03:59:54;;;;;;;12.43;7.18;;;;;;;;;;6169956;23;20237;-91
2021/09/20 04:02:59;;;;;;;12.80;8.02;;;;;;;;;;6169252;23;20148;-89
2021/09/20 04:10:24;;;;;;;12.48;7.63;;;;;;;;;;6169360;23;20157;-90
2021/09/20 04:13:29;;;;;;;18.48;8.27;;;;;;;;;;6170219;23;20156;-90
2021/09/20 04:16:36;;;;;;;11.65;7.50;;;;;;;;;;6171186;23;20238;-91
2021/09/20 04:19:42;;;;;;;12.23;8.18;;;;;;;;;;6169111;23;20548;-90
2021/09/20 04:22:47;;;;;;;15.27;8.35;;;;;;;;;;6170682;23;20168;-90
2021/09/20 04:25:52;;;;;;;12.80;8.27;;;;;;;;;;6171180;23;20176;-90
2021/09/20 04:28:58;;;;;;;13.68;8.45;;;;;;;;;;6182774;22;20219;-91
2021/09/20 04:32:05;;;;;;;15.35;8.00;;;;;;;;;;6199881;22;20527;-88
2021/09/20 04:35:10;;;;;;;14.05;8.63;;;;;;;;;;6200819;23;20179;-89
2021/09/20 04:38:17;;;;;;;15.35;9.90;;;;;;;;;;6201529;22;20200;-91
2021/09/20 04:41:23;;;;;;;14.93;9.50;;;;;;;;;;6200040;22;20168;-91
2021/09/20 04:44:28;;;;;;;16.88;9.52;;;;;;;;;;6201058;22;20167;-90
2021/09/20 04:47:35;;;;;;;18.65;10.02;;;;;;;;;;6201252;22;20219;-89
2021/09/20 04:50:41;;;;;;;14.73;9.98;;;;;;;;;;6199621;22;20219;-92
2021/09/20 04:53:46;;;;;;;15.75;9.57;;;;;;;;;;6200280;23;20623;-90
2021/09/20 04:56:51;;;;;;;12.88;8.57;;;;;;;;;;6198306;22;20171;-91
2021/09/20 04:59:56;;;;;;;14.73;8.73;;;;;;;;;;6199612;22;20169;-91
2021/09/20 05:03:03;;;;;;;13.40;8.25;;;;;;;;;;6201189;22;20171;-91
2021/09/20 05:06:09;;;;;;;16.85;8.35;;;;;;;;;;6200750;23;20171;-92
2021/09/20 05:09:14;;;;;;;15.70;8.27;;;;;;;;;;6200448;22;20216;-92
2021/09/20 05:12:20;;;;;;;15.60;9.30;;;;;;;;;;6200144;23;20272;-91
2021/09/20 05:15:25;;;;;;;17.20;9.40;;;;;;;;;;6200743;22;20224;-91
2021/09/20 05:18:31;;;;;;;16.83;10.07;;;;;;;;;;6202076;22;20172;-92
2021/09/20 05:21:37;;;;;;;18.00;9.75;;;;;;;;;;6201944;22;20171;-90
2021/09/20 05:24:42;;;;;;;18.13;10.00;;;;;;;;;;6202294;22;20200;-92
2021/09/20 05:27:47;;;;;;;18.00;10.52;;;;;;;;;;6200138;23;20175;-89
2021/09/20 05:30:54;;;;;;;17.38;10.20;;;;;;;;;;6201570;22;20262;-91
2021/09/20 05:34:02;;;;;;;16.48;10.32;;;;;;;;;;6202831;23;20159;-91
2021/09/20 05:37:07;;;;;;;20.15;11.38;;;;;;;;;;6201678;22;20176;-90
2021/09/20 05:40:13;;;;;;;16.00;9.93;;;;;;;;;;6202644;23;20164;-90
2021/09/20 05:43:18;;;;;;;17.77;10.77;;;;;;;;;;6200850;22;20548;-90
2021/09/20 05:46:23;;;;;;;18.25;10.52;;;;;;;;;;6200561;23;20249;-91
2021/09/20 05:49:31;;;;;;;21.15;11.18;;;;;;;;;;6201547;22;20707;-92
2021/09/20 05:52:36;;;;;;;19.00;11.52;;;;;;;;;;6199451;23;20183;-91
2021/09/20 05:55:41;;;;;;;19.77;11.32;;;;;;;;;;6200050;23;20218;-90
2021/09/20 05:58:47;;;;;;;19.50;10.65;;;;;;;;;;6200874;22;20168;-90
2021/09/20 06:01:53;;;;;;;22.08;12.15;;;;;;;;;;6183454;23;20230;-90
2021/09/20 06:05:04;;;;;;;19.70;12.52;;;;;;;;;;6201327;23;20168;-89
2021/09/20 06:08:10;;;;;;;19.67;12.02;;;;;;;;;;6201701;22;20168;-88
2021/09/20 06:11:16;;;;;;;19.27;12.07;;;;;;;;;;6201874;22;20199;-89
2021/09/20 06:14:21;;;;;;;24.38;14.77;;;;;;;;;;6200753;23;20215;-90
2021/09/20 06:17:28;;;;;;;30.58;15.63;;;;;;;;;;6202099;23;20179;-89
2021/09/20 06:20:35;;;;;;;24.90;14.80;;;;;;;;;;6202410;23;20168;-92
2021/09/20 06:23:40;;;;;;;24.10;14.15;;;;;;;;;;6200740;22;20164;-91
2021/09/20 06:26:45;;;;;;;21.75;13.65;;;;;;;;;;6200995;22;20266;-90
2021/09/20 06:29:51;;;;;;;19.83;12.40;;;;;;;;;;6199238;22;20263;-91
2021/09/20 06:32:56;;;;;;;21.73;12.75;;;;;;;;;;6200038;22;20199;-91
2021/09/20 06:36:03;;;;;;;19.50;12.10;;;;;;;;;;6199275;23;20215;-89
2021/09/20 06:39:08;;;;;;;20.45;11.98;;;;;;;;;;6197085;22;20172;-89
2021/09/20 06:42:14;;;;;;;22.05;12.40;;;;;;;;;;6202218;23;20248;-91
2021/09/20 06:45:19;;;;;;;24.00;13.13;;;;;;;;;;6197788;22;20168;-90
2021/09/20 06:48:25;;;;;;;26.50;12.80;;;;;;;;;;6197775;23;20623;-91
2021/09/20 06:51:32;;;;;;;22.77;14.05;;;;;;;;;;6180696;23;20338;-90
2021/09/20 06:54:37;;;;;;;19.70;12.77;;;;;;;;;;6196588;22;20191;-90
2021/09/20 06:57:43;;;;;;;24.38;13.85;;;;;;;;;;6198038;23;20241;-91
2021/09/20 07:00:50;;;;;;;20.75;12.55;;;;;;;;;;6198953;22;20241;-91
2021/09/20 07:03:55;;;;;;;19.75;12.00;;;;;;;;;;6198231;22;20218;-90
2021/09/20 08:27:17;;;;;;;14.82;9.43;;;;;;;;;;6186846;23;20204;-91
2021/09/20 08:30:24;;;;;;;13.30;8.52;;;;;;;;;;6203673;22;20183;-90
2021/09/20 08:33:37;;;;;;;19.05;9.95;;;;;;;;;;6204849;22;20180;-90
2021/09/20 08:36:42;;;;;;;16.42;9.95;;;;;;;;;;6204265;23;20274;-92
2021/09/20 08:39:48;;;;;;;16.17;9.30;;;;;;;;;;6203528;22;20168;-90
2021/09/20 08:42:55;;;;;;;31.15;15.65;;;;;;;;;;6203001;23;20168;-92
2021/09/20 08:46:03;;;;;;;16.02;8.88;;;;;;;;;;6203544;22;20171;-92
2021/09/20 08:49:09;;;;;;;12.55;8.73;;;;;;;;;;6199333;23;20607;-90
2021/09/20 08:52:13;;;;;;;12.55;8.18;;;;;;;;;;6202996;22;20263;-91
2021/09/20 08:55:20;;;;;;;12.40;8.35;;;;;;;;;;6201142;23;20172;-89
2021/09/20 08:58:27;;;;;;;14.90;8.95;;;;;;;;;;6198790;22;20703;-90
2021/09/20 09:01:33;;;;;;;17.67;9.40;;;;;;;;;;6201158;22;20155;-91
2021/09/20 09:04:39;;;;;;;16.13;9.25;;;;;;;;;;6202789;22;20192;-89
2021/09/20 09:07:45;;;;;;;14.55;7.45;;;;;;;;;;6204857;22;20175;-90
2021/09/20 09:11:00;;;;;;;13.02;7.47;;;;;;;;;;6202316;22;20223;-90
2021/09/20 09:14:07;;;;;;;14.23;8.13;;;;;;;;;;6199701;23;20233;-91
2021/09/20 09:17:14;;;;;;;11.93;7.80;;;;;;;;;;6200759;22;20171;-91
2021/09/20 09:20:21;;;;;;;12.18;7.20;;;;;;;;;;6201028;23;20179;-90
2021/09/20 09:23:27;;;;;;;10.20;6.35;;;;;;;;;;6198011;23;20188;-91
2021/09/20 09:26:32;;;;;;;11.40;6.18;;;;;;;;;;6198318;23;20196;-90
2021/09/20 09:29:47;;;;;;;9.63;6.65;;;;;;;;;;6199024;22;20171;-90
2021/09/20 09:33:06;;;;;;;9.48;6.35;;;;;;;;;;6199780;23;20187;-91
2021/09/20 09:36:13;;;;;;;12.18;6.38;;;;;;;;;;6200725;23;20171;-89
2021/09/20 09:39:27;;;;;;;10.93;6.32;;;;;;;;;;6198887;23;20287;-91
2021/09/20 09:42:32;;;;;;;9.88;6.30;;;;;;;;;;6199001;22;20172;-88
2021/09/20 09:45:39;;;;;;;9.40;5.65;;;;;;;;;;6199965;23;20180;-91
2021/09/20 09:48:45;;;;;;;11.55;6.10;;;;;;;;;;6199388;22;20160;-89
2021/09/20 09:52:01;;;;;;;8.80;5.60;;;;;;;;;;6204362;23;20199;-90
2021/09/20 09:55:09;;;;;;;9.98;6.22;;;;;;;;;;6202288;22;20266;-91
2021/09/20 09:58:16;;;;;;;23.23;12.18;;;;;;;;;;6204747;23;20160;-90
2021/09/20 10:01:36;;;;;;;11.20;6.72;;;;;;;;;;6184742;23;20167;-91
2021/09/20 10:04:50;;;;;;;9.07;6.28;;;;;;;;;;6202503;23;20305;-90
2021/09/20 10:07:55;;;;;;;8.45;5.78;;;;;;;;;;6200433;23;20176;-91
2021/09/20 10:11:01;;;;;;;11.02;6.28;;;;;;;;;;6202545;22;20164;-89
2021/09/20 10:14:08;;;;;;;10.65;6.45;;;;;;;;;;6201863;23;20211;-89
2021/09/20 10:17:18;;;;;;;10.35;6.18;;;;;;;;;;6186518;23;20176;-91
2021/09/20 10:20:25;;;;;;;8.18;6.03;;;;;;;;;;6201051;22;20252;-90
2021/09/20 10:23:32;;;;;;;10.65;6.13;;;;;;;;;;6201579;22;20187;-88
2021/09/20 10:31:16;;;;;;;11.13;5.95;;;;;;;;;;6202450;23;20156;-91
2021/09/20 10:34:29;;;;;;;9.35;5.60;;;;;;;;;;6202402;23;20647;-91
2021/09/20 10:37:35;;;;;;;13.13;5.78;;;;;;;;;;6203632;23;20184;-91
2021/09/20 10:40:41;;;;;;;10.25;5.70;;;;;;;;;;6203057;22;20172;-91
2021/09/20 10:43:48;;;;;;;10.82;6.00;;;;;;;;;;6204233;22;20224;-90
2021/09/20 10:47:13;;;;;;;8.35;5.70;;;;;;;;;;6203504;22;20163;-91
2021/09/20 10:50:48;;;;;;;10.57;5.25;;;;;;;;;;6204791;22;20160;-90
2021/09/20 10:54:19;;;;;;;7.47;5.13;;;;;;;;;;6185438;22;20239;-91
2021/09/20 10:57:25;;;;;;;7.47;5.32;;;;;;;;;;6203682;23;20615;-90
2021/09/20 11:04:02;;;;;;;8.80;5.78;;;;;;;;;;6205302;23;20171;-91
2021/09/20 11:07:16;;;;;;;10.23;5.90;;;;;;;;;;6203794;23;20187;-91
2021/09/20 11:10:30;;;;;;;8.68;5.15;;;;;;;;;;6201603;23;20171;-90
2021/09/20 11:14:01;;;;;;;10.38;6.22;;;;;;;;;;6201396;23;20183;-89
2021/09/20 11:17:23;;;;;;;11.43;5.78;;;;;;;;;;6207936;23;20163;-91
2021/09/20 11:20:36;;;;;;;8.98;6.18;;;;;;;;;;6202503;23;20499;-89
2021/09/20 11:23:57;;;;;;;10.57;5.95;;;;;;;;;;6203385;22;20200;-91
2021/09/20 11:27:14;;;;;;;9.63;5.88;;;;;;;;;;6203192;22;20191;-90
2021/09/20 11:30:24;;;;;;;9.60;5.78;;;;;;;;;;6198978;22;20235;-91
2021/09/20 11:33:39;;;;;;;10.82;6.88;;;;;;;;;;6199080;23;20196;-91
2021/09/20 11:36:45;;;;;;;11.65;6.63;;;;;;;;;;6199398;22;20681;-89
2021/09/20 11:39:53;;;;;;;11.73;6.90;;;;;;;;;;6199860;23;20240;-92
2021/09/20 11:43:01;;;;;;;10.68;6.10;;;;;;;;;;6200973;23;20168;-91
2021/09/20 11:46:09;;;;;;;10.32;6.88;;;;;;;;;;6199030;22;20168;-90
2021/09/20 11:49:16;;;;;;;9.98;6.28;;;;;;;;;;6199133;23;20231;-91
2021/09/20 11:52:31;;;;;;;15.43;8.55;;;;;;;;;;6200573;23;20195;-90
2021/09/20 11:55:37;;;;;;;11.48;6.03;;;;;;;;;;6199964;23;20175;-92
2021/09/20 11:58:52;;;;;;;9.77;6.40;;;;;;;;;;6201424;23;20231;-91
2021/09/20 12:01:58;;;;;;;13.75;6.50;;;;;;;;;;6198528;23;20619;-89
2021/09/20 12:05:05;;;;;;;9.75;6.25;;;;;;;;;;6200828;22;20228;-90
2021/09/20 12:08:13;;;;;;;10.35;6.50;;;;;;;;;;6201732;23;20219;-90
2021/09/20 12:11:23;;;;;;;14.20;7.00;;;;;;;;;;6203625;22;20240;-90
2021/09/20 12:14:30;;;;;;;13.00;6.38;;;;;;;;;;6205407;22;20179;-90
2021/09/20 12:17:54;;;;;;;14.50;7.03;;;;;;;;;;6202073;23;20171;-89
2021/09/20 12:21:01;;;;;;;10.10;6.53;;;;;;;;;;6201329;23;20168;-88
2021/09/20 12:24:07;;;;;;;11.27;6.85;;;;;;;;;;6202812;23;20151;-90
2021/09/20 12:27:13;;;;;;;11.95;6.57;;;;;;;;;;6186377;22;20239;-90
2021/09/20 12:30:35;;;;;;;9.80;6.55;;;;;;;;;;6204672;23;20188;-91
2021/09/20 12:33:56;;;;;;;10.65;6.70;;;;;;;;;;6205746;22;20286;-91
2021/09/20 12:37:03;;;;;;;11.40;6.75;;;;;;;;;;6206782;22;20208;-91
2021/09/20 12:40:23;;;;;;;12.05;6.53;;;;;;;;;;6207131;23;20242;-92
2021/09/20 12:43:30;;;;;;;12.63;6.78;;;;;;;;;;6202603;22;20175;-92
2021/09/20 12:46:36;;;;;;;11.90;6.45;;;;;;;;;;6201935;23;20216;-90
2021/09/20 12:49:44;;;;;;;14.43;6.78;;;;;;;;;;6200509;22;20167;-89
2021/09/20 12:52:55;;;;;;;9.63;6.25;;;;;;;;;;6201384;23;20195;-93
2021/09/20 12:56:01;;;;;;;13.07;6.80;;;;;;;;;;6205270;22;20311;-94
2021/09/20 12:59:18;;;;;;;15.93;6.78;;;;;;;;;;6204508;22;20248;-93
2021/09/20 13:02:24;;;;;;;11.30;6.93;;;;;;;;;;6203028;22;20212;-92
2021/09/20 13:05:32;;;;;;;9.20;5.75;;;;;;;;;;6187884;22;20224;-92
2021/09/20 13:12:17;;;;;;;10.35;6.78;;;;;;;;;;6203978;22;20225;-92
2021/09/20 13:15:25;;;;;;;11.18;6.38;;;;;;;;;;6202670;22;20171;-89
2021/09/20 13:18:33;;;;;;;16.95;9.05;;;;;;;;;;6202910;23;20188;-94
2021/09/20 13:21:40;;;;;;;18.35;8.48;;;;;;;;;;6203920;22;20171;-91
2021/09/20 13:24:49;;;;;;;11.90;7.00;;;;;;;;;;6203262;22;20215;-91
2021/09/20 13:28:02;;;;;;;13.43;7.18;;;;;;;;;;6202536;22;20183;-91
2021/09/20 13:31:10;;;;;;;12.05;7.07;;;;;;;;;;6203074;22;20172;-91
2021/09/20 13:34:16;;;;;;;13.07;7.45;;;;;;;;;;6206580;22;20195;-92
2021/09/20 13:37:27;;;;;;;10.27;6.82;;;;;;;;;;6206286;22;20167;-92
2021/09/20 13:40:37;;;;;;;11.48;7.13;;;;;;;;;;6206917;22;20270;-92
2021/09/20 13:43:42;;;;;;;12.15;6.90;;;;;;;;;;6205315;22;20211;-91
2021/09/20 13:46:49;;;;;;;10.75;6.90;;;;;;;;;;6203740;22;20277;-92
2021/09/20 13:49:54;;;;;;;10.63;6.80;;;;;;;;;;6204100;22;20212;-92
2021/09/20 13:53:01;;;;;;;16.00;8.27;;;;;;;;;;6204705;22;20299;-91
2021/09/20 13:56:08;;;;;;;11.85;6.90;;;;;;;;;;6205646;22;20168;-92
2021/09/20 13:59:14;;;;;;;11.93;6.68;;;;;;;;;;6204194;22;20180;-93
2021/09/20 14:02:20;;;;;;;13.27;6.60;;;;;;;;;;6200545;22;20234;-91
2021/09/20 14:05:26;;;;;;;12.48;6.75;;;;;;;;;;6203378;23;20160;-93
2021/09/20 14:08:35;;;;;;;10.63;6.35;;;;;;;;;;6202471;23;20168;-92
2021/09/20 14:11:42;;;;;;;10.50;6.68;;;;;;;;;;6202459;23;20168;-92
2021/09/20 22:06:41;;;;;;;18.13;8.30;;;;;;;;;;6203557;22;20195;-92
2021/09/20 22:09:46;;;;;;;15.93;7.45;;;;;;;;;;6204033;22;20168;-91
2021/09/20 22:12:52;;;;;;;14.95;7.93;;;;;;;;;;6188841;22;20156;-91
2021/09/20 22:15:59;;;;;;;13.85;7.35;;;;;;;;;;6203419;22;20163;-91
2021/09/20 22:22:36;;;;;;;12.27;7.45;;;;;;;;;;6150510;23;20192;-93
2021/09/20 22:25:42;;;;;;;11.45;7.15;;;;;;;;;;6147524;23;20156;-91
2021/09/20 22:28:52;;;;;;;12.73;7.22;;;;;;;;;;6146456;23;20157;-91
2021/09/20 22:31:57;;;;;;;14.77;7.15;;;;;;;;;;6145939;23;20218;-89
2021/09/20 22:35:03;;;;;;;10.75;6.40;;;;;;;;;;6146835;23;20221;-93
2021/09/20 22:38:13;;;;;;;13.75;7.25;;;;;;;;;;6146498;23;20165;-93
2021/09/20 22:41:22;;;;;;;13.18;7.03;;;;;;;;;;6145595;23;20164;-91
2021/09/20 22:44:27;;;;;;;13.20;7.22;;;;;;;;;;6146861;23;20173;-91
2021/09/20 22:47:33;;;;;;;13.75;6.95;;;;;;;;;;6145960;23;20169;-92
2021/09/20 22:50:39;;;;;;;13.43;6.50;;;;;;;;;;6151541;22;20262;-92
2021/09/20 22:53:54;;;;;;;13.35;6.72;;;;;;;;;;6204707;22;20191;-93
2021/09/20 22:57:07;;;;;;;12.75;6.50;;;;;;;;;;6205011;22;20171;-92
2021/09/20 23:00:16;;;;;;;12.48;6.97;;;;;;;;;;6202791;22;20152;-92
2021/09/20 23:03:21;;;;;;;11.60;6.85;;;;;;;;;;6204437;22;20156;-92
2021/09/20 23:06:31;;;;;;;10.48;6.68;;;;;;;;;;6203625;22;20239;-92
2021/09/20 23:09:39;;;;;;;11.45;6.28;;;;;;;;;;6200372;22;20188;-92
2021/09/20 23:12:44;;;;;;;10.02;6.28;;;;;;;;;;6200628;22;20197;-91
2021/09/20 23:15:50;;;;;;;10.15;6.18;;;;;;;;;;6199592;22;20195;-91
2021/09/20 23:18:55;;;;;;;10.73;6.82;;;;;;;;;;6200679;22;20159;-90
2021/09/20 23:22:00;;;;;;;12.13;6.55;;;;;;;;;;6199733;22;20179;-91
2021/09/20 23:25:10;;;;;;;10.70;6.22;;;;;;;;;;6199558;22;20264;-91
2021/09/20 23:28:14;;;;;;;10.18;6.10;;;;;;;;;;6200435;22;20188;-92
2021/09/20 23:31:20;;;;;;;9.48;5.95;;;;;;;;;;6199183;22;20164;-92
2021/09/20 23:34:26;;;;;;;9.98;6.13;;;;;;;;;;6199465;22;20207;-93
2021/09/20 23:37:31;;;;;;;10.85;6.03;;;;;;;;;;6199869;22;20188;-92
2021/09/20 23:40:38;;;;;;;20.90;8.13;;;;;;;;;;6198745;22;20502;-92
2021/09/20 23:43:44;;;;;;;11.77;5.80;;;;;;;;;;6200815;22;20168;-93
2021/09/20 23:46:49;;;;;;;13.75;6.43;;;;;;;;;;6200214;22;20172;-93
2021/09/20 23:49:54;;;;;;;10.38;6.30;;;;;;;;;;6201608;22;20156;-93
2021/09/20 23:53:00;;;;;;;16.83;6.50;;;;;;;;;;6202267;22;20164;-92
2021/09/20 23:56:07;;;;;;;9.40;5.95;;;;;;;;;;6201161;22;20171;-93
2021/09/20 23:59:12;;;;;;;11.52;6.22;;;;;;;;;;6201506;22;20151;-92
